sensor_id;sensor_type;location;lat;lon;timestamp;pressure;altitude;pressure_sealevel;temperature;humidity
65384;BME280;51986;52.788;41.368;2022-09-09T00:00:23;99569.13;;;7.75;61.99
65384;BME280;51986;52.788;41.368;2022-09-09T00:03:12;99585.97;;;7.74;62.29
65384;BME280;51986;52.788;41.368;2022-09-09T00:08:22;99578.09;;;7.71;62.72
65384;BME280;51986;52.788;41.368;2022-09-09T00:10:58;99644.63;;;7.89;62.12
65384;BME280;51986;52.788;41.368;2022-09-09T00:13:36;99582.34;;;7.93;62.11
65384;BME280;51986;52.788;41.368;2022-09-09T00:16:25;99567.34;;;7.90;63.03
65384;BME280;51986;52.788;41.368;2022-09-09T00:21:38;99571.06;;;7.86;63.24
65384;BME280;51986;52.788;41.368;2022-09-09T00:24:11;99585.44;;;8.06;63.20
65384;BME280;51986;52.788;41.368;2022-09-09T00:26:54;99580.97;;;8.10;63.19
65384;BME280;51986;52.788;41.368;2022-09-09T00:32:14;99595.22;;;8.13;63.38
65384;BME280;51986;52.788;41.368;2022-09-09T00:34:51;99574.19;;;8.06;64.09
65384;BME280;51986;52.788;41.368;2022-09-09T00:37:22;99588.72;;;7.92;64.33
65384;BME280;51986;52.788;41.368;2022-09-09T00:39:55;99540.69;;;7.85;63.91
65384;BME280;51986;52.788;41.368;2022-09-09T00:42:36;99585.50;;;8.13;64.48
65384;BME280;51986;52.788;41.368;2022-09-09T00:47:55;99590.72;;;8.10;64.34
65384;BME280;51986;52.788;41.368;2022-09-09T00:53:56;99576.91;;;8.27;63.86
65384;BME280;51986;52.788;41.368;2022-09-09T00:56:34;99595.31;;;8.27;64.81
65384;BME280;51986;52.788;41.368;2022-09-09T00:59:21;99591.94;;;8.30;63.78
65384;BME280;51986;52.788;41.368;2022-09-09T01:04:40;99597.22;;;8.30;64.25
65384;BME280;51986;52.788;41.368;2022-09-09T01:07:18;99584.03;;;8.23;64.37
65384;BME280;51986;52.788;41.368;2022-09-09T01:09:55;99595.13;;;7.95;65.03
65384;BME280;51986;52.788;41.368;2022-09-09T01:12:34;99596.84;;;8.28;64.26
65384;BME280;51986;52.788;41.368;2022-09-09T01:15:12;99613.41;;;8.39;64.48
65384;BME280;51986;52.788;41.368;2022-09-09T01:18:04;99607.00;;;8.40;64.12
65384;BME280;51986;52.788;41.368;2022-09-09T01:23:53;99604.00;;;8.38;64.37
65384;BME280;51986;52.788;41.368;2022-09-09T01:29:01;99608.06;;;8.25;64.87
65384;BME280;51986;52.788;41.368;2022-09-09T01:31:51;99610.41;;;8.41;64.61
65384;BME280;51986;52.788;41.368;2022-09-09T01:34:21;99603.22;;;8.31;64.77
65384;BME280;51986;52.788;41.368;2022-09-09T01:36:56;99609.56;;;8.26;65.32
65384;BME280;51986;52.788;41.368;2022-09-09T01:39:25;99622.81;;;8.44;64.94
65384;BME280;51986;52.788;41.368;2022-09-09T01:42:09;99618.94;;;8.20;65.09
65384;BME280;51986;52.788;41.368;2022-09-09T01:44:37;99615.22;;;8.28;65.23
65384;BME280;51986;52.788;41.368;2022-09-09T01:47:06;99618.88;;;8.09;65.75
65384;BME280;51986;52.788;41.368;2022-09-09T01:49:36;99611.00;;;8.13;66.32
65384;BME280;51986;52.788;41.368;2022-09-09T01:52:11;99641.44;;;8.17;65.98
65384;BME280;51986;52.788;41.368;2022-09-09T01:54:38;99613.69;;;8.20;65.87
65384;BME280;51986;52.788;41.368;2022-09-09T01:57:25;99621.97;;;8.25;66.47
65384;BME280;51986;52.788;41.368;2022-09-09T02:00:05;99635.94;;;8.40;66.17
65384;BME280;51986;52.788;41.368;2022-09-09T02:02:48;99648.63;;;8.24;65.95
65384;BME280;51986;52.788;41.368;2022-09-09T02:05:37;99646.09;;;8.45;65.73
65384;BME280;51986;52.788;41.368;2022-09-09T02:08:24;99620.22;;;8.55;65.43
65384;BME280;51986;52.788;41.368;2022-09-09T02:11:06;99635.59;;;8.42;65.89
65384;BME280;51986;52.788;41.368;2022-09-09T02:13:44;99637.47;;;8.45;65.97
65384;BME280;51986;52.788;41.368;2022-09-09T02:19:01;99638.91;;;8.35;66.24
65384;BME280;51986;52.788;41.368;2022-09-09T02:21:47;99627.66;;;8.35;66.31
65384;BME280;51986;52.788;41.368;2022-09-09T02:24:15;99654.00;;;8.49;65.72
65384;BME280;51986;52.788;41.368;2022-09-09T02:26:52;99638.97;;;8.46;65.33
65384;BME280;51986;52.788;41.368;2022-09-09T02:29:29;99642.00;;;8.48;65.09
65384;BME280;51986;52.788;41.368;2022-09-09T02:32:02;99646.16;;;8.56;65.49
65384;BME280;51986;52.788;41.368;2022-09-09T02:34:37;99638.38;;;8.74;64.56
65384;BME280;51986;52.788;41.368;2022-09-09T02:37:09;99657.47;;;8.67;65.24
65384;BME280;51986;52.788;41.368;2022-09-09T02:39:39;99663.88;;;8.70;65.40
65384;BME280;51986;52.788;41.368;2022-09-09T02:42:10;99672.16;;;8.72;64.33
65384;BME280;51986;52.788;41.368;2022-09-09T02:44:37;99665.88;;;8.91;64.28
65384;BME280;51986;52.788;41.368;2022-09-09T02:57:47;99666.94;;;8.75;64.40
65384;BME280;51986;52.788;41.368;2022-09-09T03:00:23;99660.13;;;8.71;64.81
65384;BME280;51986;52.788;41.368;2022-09-09T03:02:50;99667.75;;;8.90;64.72
65384;BME280;51986;52.788;41.368;2022-09-09T03:05:44;99681.66;;;8.98;64.13
65384;BME280;51986;52.788;41.368;2022-09-09T03:08:12;99697.13;;;9.07;63.90
65384;BME280;51986;52.788;41.368;2022-09-09T03:10:41;99701.19;;;8.86;64.02
65384;BME280;51986;52.788;41.368;2022-09-09T03:13:09;99702.25;;;8.78;64.61
65384;BME280;51986;52.788;41.368;2022-09-09T03:15:38;99706.84;;;8.99;63.89
65384;BME280;51986;52.788;41.368;2022-09-09T03:18:08;99686.53;;;8.85;64.52
65384;BME280;51986;52.788;41.368;2022-09-09T03:20:35;99704.22;;;8.92;64.24
65384;BME280;51986;52.788;41.368;2022-09-09T03:23:02;99704.19;;;8.88;64.37
65384;BME280;51986;52.788;41.368;2022-09-09T03:25:29;99707.22;;;8.97;64.06
65384;BME280;51986;52.788;41.368;2022-09-09T03:27:56;99705.41;;;9.05;63.93
65384;BME280;51986;52.788;41.368;2022-09-09T03:30:25;99698.94;;;8.92;63.84
65384;BME280;51986;52.788;41.368;2022-09-09T03:32:54;99728.66;;;8.96;64.28
65384;BME280;51986;52.788;41.368;2022-09-09T03:35:25;99703.91;;;9.11;63.16
65384;BME280;51986;52.788;41.368;2022-09-09T03:38:01;99693.72;;;8.95;63.69
65384;BME280;51986;52.788;41.368;2022-09-09T03:40:31;99715.13;;;8.97;64.07
65384;BME280;51986;52.788;41.368;2022-09-09T03:42:58;99710.66;;;9.12;63.24
65384;BME280;51986;52.788;41.368;2022-09-09T03:45:25;99715.91;;;9.01;63.62
65384;BME280;51986;52.788;41.368;2022-09-09T03:47:52;99712.88;;;8.96;63.44
65384;BME280;51986;52.788;41.368;2022-09-09T03:50:20;99712.03;;;8.77;63.73
65384;BME280;51986;52.788;41.368;2022-09-09T03:52:47;99688.34;;;8.74;64.69
65384;BME280;51986;52.788;41.368;2022-09-09T03:55:19;99706.41;;;8.79;64.25
65384;BME280;51986;52.788;41.368;2022-09-09T03:57:46;99726.34;;;8.80;64.38
65384;BME280;51986;52.788;41.368;2022-09-09T04:00:13;99712.69;;;8.64;64.68
65384;BME280;51986;52.788;41.368;2022-09-09T04:02:48;99710.41;;;8.59;64.92
65384;BME280;51986;52.788;41.368;2022-09-09T04:05:16;99711.13;;;8.56;64.25
65384;BME280;51986;52.788;41.368;2022-09-09T04:07:45;99729.38;;;8.86;64.08
65384;BME280;51986;52.788;41.368;2022-09-09T04:10:12;99703.78;;;8.83;64.14
65384;BME280;51986;52.788;41.368;2022-09-09T04:12:39;99728.13;;;8.69;64.42
65384;BME280;51986;52.788;41.368;2022-09-09T04:15:06;99716.03;;;8.61;64.71
65384;BME280;51986;52.788;41.368;2022-09-09T04:17:34;99707.94;;;8.80;63.61
65384;BME280;51986;52.788;41.368;2022-09-09T04:20:02;99737.44;;;8.59;65.24
65384;BME280;51986;52.788;41.368;2022-09-09T04:22:38;99733.72;;;8.64;64.80
65384;BME280;51986;52.788;41.368;2022-09-09T04:25:06;99743.50;;;8.67;64.01
65384;BME280;51986;52.788;41.368;2022-09-09T04:27:34;99763.22;;;8.91;63.74
65384;BME280;51986;52.788;41.368;2022-09-09T04:30:01;99722.47;;;8.67;63.90
65384;BME280;51986;52.788;41.368;2022-09-09T04:32:32;99753.38;;;8.77;63.42
65384;BME280;51986;52.788;41.368;2022-09-09T04:34:59;99756.31;;;8.72;63.50
65384;BME280;51986;52.788;41.368;2022-09-09T04:37:26;99739.69;;;8.61;63.76
65384;BME280;51986;52.788;41.368;2022-09-09T04:39:54;99739.34;;;8.62;64.27
65384;BME280;51986;52.788;41.368;2022-09-09T04:42:21;99747.06;;;8.92;63.05
65384;BME280;51986;52.788;41.368;2022-09-09T04:44:48;99752.00;;;9.01;62.65
65384;BME280;51986;52.788;41.368;2022-09-09T04:47:15;99752.06;;;9.19;61.24
65384;BME280;51986;52.788;41.368;2022-09-09T04:49:42;99757.69;;;9.14;61.16
65384;BME280;51986;52.788;41.368;2022-09-09T04:52:08;99767.38;;;8.99;61.81
65384;BME280;51986;52.788;41.368;2022-09-09T04:54:36;99734.41;;;9.26;60.60
65384;BME280;51986;52.788;41.368;2022-09-09T04:57:03;99718.22;;;9.14;60.08
65384;BME280;51986;52.788;41.368;2022-09-09T04:59:29;99772.00;;;9.27;60.26
65384;BME280;51986;52.788;41.368;2022-09-09T05:01:59;99755.16;;;9.39;59.61
65384;BME280;51986;52.788;41.368;2022-09-09T05:04:26;99792.81;;;9.61;60.00
65384;BME280;51986;52.788;41.368;2022-09-09T05:06:54;99773.97;;;9.44;60.04
65384;BME280;51986;52.788;41.368;2022-09-09T05:09:22;99787.44;;;9.25;60.41
65384;BME280;51986;52.788;41.368;2022-09-09T05:11:50;99780.72;;;9.45;60.17
65384;BME280;51986;52.788;41.368;2022-09-09T05:14:30;99763.47;;;9.66;59.52
65384;BME280;51986;52.788;41.368;2022-09-09T05:16:59;99774.78;;;9.70;58.68
65384;BME280;51986;52.788;41.368;2022-09-09T05:19:26;99790.25;;;9.86;58.79
65384;BME280;51986;52.788;41.368;2022-09-09T05:21:54;99796.72;;;10.35;57.63
65384;BME280;51986;52.788;41.368;2022-09-09T05:24:27;99805.25;;;9.64;58.09
65384;BME280;51986;52.788;41.368;2022-09-09T05:26:56;99794.03;;;10.06;57.30
65384;BME280;51986;52.788;41.368;2022-09-09T05:29:23;99794.81;;;10.10;57.23
65384;BME280;51986;52.788;41.368;2022-09-09T05:31:50;99793.28;;;10.23;56.33
65384;BME280;51986;52.788;41.368;2022-09-09T05:34:19;99802.38;;;10.44;56.12
65384;BME280;51986;52.788;41.368;2022-09-09T05:36:46;99794.06;;;10.45;56.41
65384;BME280;51986;52.788;41.368;2022-09-09T05:39:14;99791.03;;;10.15;57.52
65384;BME280;51986;52.788;41.368;2022-09-09T05:41:41;99814.38;;;10.05;58.11
65384;BME280;51986;52.788;41.368;2022-09-09T05:44:08;99790.59;;;9.80;57.89
65384;BME280;51986;52.788;41.368;2022-09-09T05:46:37;99800.06;;;9.92;57.86
65384;BME280;51986;52.788;41.368;2022-09-09T05:49:05;99819.25;;;9.96;57.77
65384;BME280;51986;52.788;41.368;2022-09-09T05:51:33;99798.94;;;10.07;57.27
65384;BME280;51986;52.788;41.368;2022-09-09T05:54:07;99817.38;;;9.93;57.26
65384;BME280;51986;52.788;41.368;2022-09-09T05:56:40;99814.78;;;10.50;55.79
65384;BME280;51986;52.788;41.368;2022-09-09T05:59:08;99826.84;;;10.37;54.19
65384;BME280;51986;52.788;41.368;2022-09-09T06:04:20;99826.09;;;10.65;52.70
65384;BME280;51986;52.788;41.368;2022-09-09T06:06:48;99821.94;;;10.71;52.28
65384;BME280;51986;52.788;41.368;2022-09-09T06:09:18;99809.13;;;10.77;51.76
65384;BME280;51986;52.788;41.368;2022-09-09T06:11:45;99827.84;;;11.29;51.31
65384;BME280;51986;52.788;41.368;2022-09-09T06:14:14;99831.22;;;11.37;51.25
65384;BME280;51986;52.788;41.368;2022-09-09T06:17:07;99807.09;;;11.27;51.03
65384;BME280;51986;52.788;41.368;2022-09-09T06:19:35;99818.00;;;11.37;50.30
65384;BME280;51986;52.788;41.368;2022-09-09T06:22:02;99813.50;;;11.30;50.31
65384;BME280;51986;52.788;41.368;2022-09-09T06:24:33;99815.91;;;11.87;48.78
65384;BME280;51986;52.788;41.368;2022-09-09T06:27:10;99843.44;;;11.97;49.85
65384;BME280;51986;52.788;41.368;2022-09-09T06:29:37;99813.94;;;12.02;49.21
65384;BME280;51986;52.788;41.368;2022-09-09T06:32:04;99839.56;;;12.08;49.03
65384;BME280;51986;52.788;41.368;2022-09-09T06:34:31;99842.94;;;12.09;48.91
65384;BME280;51986;52.788;41.368;2022-09-09T06:36:59;99844.72;;;12.26;48.88
65384;BME280;51986;52.788;41.368;2022-09-09T06:39:34;99859.94;;;12.12;49.35
65384;BME280;51986;52.788;41.368;2022-09-09T06:42:19;99831.72;;;11.91;50.31
65384;BME280;51986;52.788;41.368;2022-09-09T06:44:49;99836.75;;;11.74;49.70
65384;BME280;51986;52.788;41.368;2022-09-09T06:47:33;99842.28;;;11.94;50.45
65384;BME280;51986;52.788;41.368;2022-09-09T06:50:00;99828.16;;;11.49;50.37
65384;BME280;51986;52.788;41.368;2022-09-09T06:52:34;99834.19;;;11.49;50.89
65384;BME280;51986;52.788;41.368;2022-09-09T06:55:03;99856.09;;;11.43;50.43
65384;BME280;51986;52.788;41.368;2022-09-09T06:57:31;99846.31;;;11.36;51.39
65384;BME280;51986;52.788;41.368;2022-09-09T07:00:12;99891.56;;;11.38;51.35
65384;BME280;51986;52.788;41.368;2022-09-09T07:02:39;99854.72;;;10.92;53.40
65384;BME280;51986;52.788;41.368;2022-09-09T07:05:08;99861.88;;;10.80;53.19
65384;BME280;51986;52.788;41.368;2022-09-09T07:07:36;99872.28;;;11.52;52.20
65384;BME280;51986;52.788;41.368;2022-09-09T07:10:03;99850.88;;;11.14;52.36
65384;BME280;51986;52.788;41.368;2022-09-09T07:12:30;99865.16;;;11.38;51.59
65384;BME280;51986;52.788;41.368;2022-09-09T07:15:01;99858.38;;;11.44;50.66
65384;BME280;51986;52.788;41.368;2022-09-09T07:17:28;99869.53;;;11.88;50.91
65384;BME280;51986;52.788;41.368;2022-09-09T07:19:57;99854.06;;;11.82;49.91
65384;BME280;51986;52.788;41.368;2022-09-09T07:22:25;99879.78;;;11.75;49.50
65384;BME280;51986;52.788;41.368;2022-09-09T07:24:54;99887.72;;;11.60;50.10
65384;BME280;51986;52.788;41.368;2022-09-09T07:27:20;99887.00;;;11.53;50.90
65384;BME280;51986;52.788;41.368;2022-09-09T07:29:50;99873.97;;;10.39;56.94
65384;BME280;51986;52.788;41.368;2022-09-09T07:32:20;99875.34;;;9.97;57.86
65384;BME280;51986;52.788;41.368;2022-09-09T07:34:47;99895.41;;;10.37;58.25
65384;BME280;51986;52.788;41.368;2022-09-09T07:37:14;99898.44;;;10.61;57.90
65384;BME280;51986;52.788;41.368;2022-09-09T07:39:43;99918.06;;;10.60;57.62
65384;BME280;51986;52.788;41.368;2022-09-09T07:42:11;99899.94;;;11.04;57.81
65384;BME280;51986;52.788;41.368;2022-09-09T07:44:38;99905.59;;;11.14;56.77
65384;BME280;51986;52.788;41.368;2022-09-09T07:47:09;99889.34;;;11.22;56.42
65384;BME280;51986;52.788;41.368;2022-09-09T07:49:43;99887.78;;;11.50;55.27
65384;BME280;51986;52.788;41.368;2022-09-09T07:52:10;99893.28;;;11.91;55.89
65384;BME280;51986;52.788;41.368;2022-09-09T07:54:44;99904.84;;;12.19;53.62
65384;BME280;51986;52.788;41.368;2022-09-09T07:57:11;99895.75;;;12.27;53.60
65384;BME280;51986;52.788;41.368;2022-09-09T07:59:38;99900.09;;;12.51;53.20
65384;BME280;51986;52.788;41.368;2022-09-09T08:02:08;99888.25;;;12.18;53.03
65384;BME280;51986;52.788;41.368;2022-09-09T08:04:36;99905.41;;;12.48;52.71
65384;BME280;51986;52.788;41.368;2022-09-09T08:07:35;99912.69;;;12.33;51.93
65384;BME280;51986;52.788;41.368;2022-09-09T08:10:17;99913.69;;;11.91;52.60
65384;BME280;51986;52.788;41.368;2022-09-09T08:12:47;99894.81;;;11.89;53.77
65384;BME280;51986;52.788;41.368;2022-09-09T08:15:34;99902.13;;;11.45;52.98
65384;BME280;51986;52.788;41.368;2022-09-09T08:18:02;99926.34;;;11.29;54.77
65384;BME280;51986;52.788;41.368;2022-09-09T08:20:29;99899.94;;;11.04;55.39
65384;BME280;51986;52.788;41.368;2022-09-09T08:22:56;99896.56;;;11.07;54.52
65384;BME280;51986;52.788;41.368;2022-09-09T08:25:23;99885.56;;;11.27;53.16
65384;BME280;51986;52.788;41.368;2022-09-09T08:27:53;99907.06;;;11.40;52.29
65384;BME280;51986;52.788;41.368;2022-09-09T08:30:20;99908.78;;;11.96;51.72
65384;BME280;51986;52.788;41.368;2022-09-09T08:32:48;99905.66;;;12.16;51.05
65384;BME280;51986;52.788;41.368;2022-09-09T08:35:19;99914.84;;;12.49;50.15
65384;BME280;51986;52.788;41.368;2022-09-09T08:37:47;99886.97;;;12.85;49.11
65384;BME280;51986;52.788;41.368;2022-09-09T08:40:21;99883.44;;;13.71;48.52
65384;BME280;51986;52.788;41.368;2022-09-09T08:42:54;99899.88;;;13.25;47.18
65384;BME280;51986;52.788;41.368;2022-09-09T08:45:33;99895.25;;;12.91;48.43
65384;BME280;51986;52.788;41.368;2022-09-09T08:51:02;99896.50;;;12.27;49.99
65384;BME280;51986;52.788;41.368;2022-09-09T08:53:39;99902.63;;;12.10;50.30
65384;BME280;51986;52.788;41.368;2022-09-09T08:56:12;99891.59;;;11.24;52.40
65384;BME280;51986;52.788;41.368;2022-09-09T08:58:49;99921.47;;;10.81;54.35
65384;BME280;51986;52.788;41.368;2022-09-09T09:01:41;99906.75;;;10.63;55.86
65384;BME280;51986;52.788;41.368;2022-09-09T09:09:53;99921.06;;;10.54;57.43
65384;BME280;51986;52.788;41.368;2022-09-09T09:12:27;99935.41;;;10.75;57.70
65384;BME280;51986;52.788;41.368;2022-09-09T09:14:55;99942.94;;;11.08;57.49
65384;BME280;51986;52.788;41.368;2022-09-09T09:17:25;99946.28;;;11.45;56.88
65384;BME280;51986;52.788;41.368;2022-09-09T09:19:53;99929.28;;;11.53;57.36
65384;BME280;51986;52.788;41.368;2022-09-09T09:22:25;99942.75;;;11.91;55.91
65384;BME280;51986;52.788;41.368;2022-09-09T09:28:03;99942.00;;;11.90;54.10
65384;BME280;51986;52.788;41.368;2022-09-09T09:30:54;99946.41;;;12.18;54.16
65384;BME280;51986;52.788;41.368;2022-09-09T09:36:08;99943.31;;;12.34;52.39
65384;BME280;51986;52.788;41.368;2022-09-09T09:38:37;99940.31;;;12.32;52.32
65384;BME280;51986;52.788;41.368;2022-09-09T09:41:35;99953.09;;;12.41;50.82
65384;BME280;51986;52.788;41.368;2022-09-09T09:44:04;99943.03;;;12.10;51.68
65384;BME280;51986;52.788;41.368;2022-09-09T09:46:32;99945.59;;;12.28;51.10
65384;BME280;51986;52.788;41.368;2022-09-09T09:49:10;99951.06;;;11.96;50.49
65384;BME280;51986;52.788;41.368;2022-09-09T09:51:38;99943.56;;;11.84;50.57
65384;BME280;51986;52.788;41.368;2022-09-09T09:54:28;99949.59;;;11.88;52.24
65384;BME280;51986;52.788;41.368;2022-09-09T09:57:14;99955.28;;;11.79;52.58
65384;BME280;51986;52.788;41.368;2022-09-09T09:59:45;99954.53;;;11.61;52.08
65384;BME280;51986;52.788;41.368;2022-09-09T10:02:25;99936.84;;;11.54;51.74
65384;BME280;51986;52.788;41.368;2022-09-09T10:07:45;99956.47;;;11.50;52.50
65384;BME280;51986;52.788;41.368;2022-09-09T10:10:20;99987.38;;;11.67;53.03
65384;BME280;51986;52.788;41.368;2022-09-09T10:16:12;99975.00;;;11.39;51.57
65384;BME280;51986;52.788;41.368;2022-09-09T10:38:26;99980.81;;;12.15;50.39
65384;BME280;51986;52.788;41.368;2022-09-09T10:52:07;99992.50;;;12.21;48.83
65384;BME280;51986;52.788;41.368;2022-09-09T10:54:51;100001.94;;;12.25;49.11
65384;BME280;51986;52.788;41.368;2022-09-09T11:00:04;99976.75;;;11.92;48.91
65384;BME280;51986;52.788;41.368;2022-09-09T11:02:34;99984.38;;;11.54;48.64
65384;BME280;51986;52.788;41.368;2022-09-09T11:05:14;100000.22;;;11.65;48.36
65384;BME280;51986;52.788;41.368;2022-09-09T11:07:55;100017.97;;;11.57;49.86
65384;BME280;51986;52.788;41.368;2022-09-09T11:13:04;100022.09;;;11.80;48.56
65384;BME280;51986;52.788;41.368;2022-09-09T11:15:40;99997.56;;;11.79;48.35
65384;BME280;51986;52.788;41.368;2022-09-09T11:18:20;100010.00;;;11.97;47.64
65384;BME280;51986;52.788;41.368;2022-09-09T11:20:50;100010.66;;;12.19;48.29
65384;BME280;51986;52.788;41.368;2022-09-09T11:23:34;99996.19;;;12.41;48.07
65384;BME280;51986;52.788;41.368;2022-09-09T11:26:14;99993.19;;;12.35;47.33
65384;BME280;51986;52.788;41.368;2022-09-09T11:29:00;100007.19;;;12.32;46.84
65384;BME280;51986;52.788;41.368;2022-09-09T11:32:03;100011.44;;;12.05;45.87
65384;BME280;51986;52.788;41.368;2022-09-09T11:40:43;100000.50;;;12.03;46.74
65384;BME280;51986;52.788;41.368;2022-09-09T11:43:27;100018.72;;;11.69;46.71
65384;BME280;51986;52.788;41.368;2022-09-09T11:45:59;100019.06;;;11.85;47.11
65384;BME280;51986;52.788;41.368;2022-09-09T11:48:35;100001.94;;;12.25;44.87
65384;BME280;51986;52.788;41.368;2022-09-09T11:51:09;100025.34;;;12.27;45.31
65384;BME280;51986;52.788;41.368;2022-09-09T11:54:02;100009.25;;;11.93;44.38
65384;BME280;51986;52.788;41.368;2022-09-09T11:56:30;100014.56;;;11.82;45.21
65384;BME280;51986;52.788;41.368;2022-09-09T11:59:04;100012.97;;;12.02;44.45
65384;BME280;51986;52.788;41.368;2022-09-09T12:01:40;100032.69;;;11.87;44.18
65384;BME280;51986;52.788;41.368;2022-09-09T12:07:03;100006.56;;;12.03;45.10
65384;BME280;51986;52.788;41.368;2022-09-09T12:09:46;100003.66;;;12.57;44.74
65384;BME280;51986;52.788;41.368;2022-09-09T12:19:44;100027.78;;;11.82;44.02
65384;BME280;51986;52.788;41.368;2022-09-09T12:28:10;100004.34;;;11.80;45.07
65384;BME280;51986;52.788;41.368;2022-09-09T12:30:56;100015.97;;;12.12;45.08
65384;BME280;51986;52.788;41.368;2022-09-09T12:33:34;100020.53;;;12.04;45.25
65384;BME280;51986;52.788;41.368;2022-09-09T12:36:04;100025.47;;;11.91;44.97
65384;BME280;51986;52.788;41.368;2022-09-09T12:38:43;100021.97;;;12.19;44.61
65384;BME280;51986;52.788;41.368;2022-09-09T12:41:36;100009.50;;;12.20;44.90
65384;BME280;51986;52.788;41.368;2022-09-09T12:44:04;100027.59;;;12.32;43.75
65384;BME280;51986;52.788;41.368;2022-09-09T12:46:36;99996.88;;;12.49;44.51
65384;BME280;51986;52.788;41.368;2022-09-09T12:49:04;99997.41;;;12.19;43.84
65384;BME280;51986;52.788;41.368;2022-09-09T12:51:32;100026.41;;;12.44;43.47
65384;BME280;51986;52.788;41.368;2022-09-09T12:54:00;100007.44;;;12.56;42.62
65384;BME280;51986;52.788;41.368;2022-09-09T12:56:30;100017.44;;;12.90;43.04
65384;BME280;51986;52.788;41.368;2022-09-09T12:58:58;100011.94;;;12.62;42.07
65384;BME280;51986;52.788;41.368;2022-09-09T13:01:28;100024.06;;;12.60;42.30
65384;BME280;51986;52.788;41.368;2022-09-09T13:03:56;100036.41;;;12.81;41.54
65384;BME280;51986;52.788;41.368;2022-09-09T13:06:28;100043.84;;;12.97;41.96
65384;BME280;51986;52.788;41.368;2022-09-09T13:08:58;100014.31;;;13.05;41.95
65384;BME280;51986;52.788;41.368;2022-09-09T13:11:39;100028.59;;;13.22;41.07
65384;BME280;51986;52.788;41.368;2022-09-09T13:14:19;100020.31;;;13.58;41.65
65384;BME280;51986;52.788;41.368;2022-09-09T13:17:14;100013.56;;;13.87;40.12
65384;BME280;51986;52.788;41.368;2022-09-09T13:19:44;100020.03;;;13.83;40.66
65384;BME280;51986;52.788;41.368;2022-09-09T13:22:29;100015.53;;;13.42;40.25
65384;BME280;51986;52.788;41.368;2022-09-09T13:25:21;100028.84;;;13.35;41.39
65384;BME280;51986;52.788;41.368;2022-09-09T13:28:02;100008.22;;;13.53;41.03
65384;BME280;51986;52.788;41.368;2022-09-09T13:30:37;100027.59;;;13.50;40.55
65384;BME280;51986;52.788;41.368;2022-09-09T13:35:54;100028.63;;;13.15;42.47
65384;BME280;51986;52.788;41.368;2022-09-09T13:38:25;100045.41;;;12.94;41.71
65384;BME280;51986;52.788;41.368;2022-09-09T13:41:02;100038.88;;;12.43;43.03
65384;BME280;51986;52.788;41.368;2022-09-09T13:43:50;100057.84;;;12.27;43.67
65384;BME280;51986;52.788;41.368;2022-09-09T13:46:36;100058.34;;;11.87;46.40
65384;BME280;51986;52.788;41.368;2022-09-09T13:51:36;100055.66;;;12.01;47.55
65384;BME280;51986;52.788;41.368;2022-09-09T13:54:05;100029.22;;;12.08;47.57
65384;BME280;51986;52.788;41.368;2022-09-09T13:56:33;100039.38;;;12.13;47.51
65384;BME280;51986;52.788;41.368;2022-09-09T13:59:23;100048.03;;;12.28;47.63
65384;BME280;51986;52.788;41.368;2022-09-09T14:01:56;100064.28;;;12.26;48.21
65384;BME280;51986;52.788;41.368;2022-09-09T14:04:23;100070.78;;;12.00;48.90
65384;BME280;51986;52.788;41.368;2022-09-09T14:06:50;100086.28;;;12.02;49.54
65384;BME280;51986;52.788;41.368;2022-09-09T14:12:11;100054.94;;;11.86;48.29
65384;BME280;51986;52.788;41.368;2022-09-09T14:17:28;100049.22;;;12.09;47.75
65384;BME280;51986;52.788;41.368;2022-09-09T14:19:58;100053.75;;;12.16;48.17
65384;BME280;51986;52.788;41.368;2022-09-09T14:22:25;100062.00;;;12.32;46.99
65384;BME280;51986;52.788;41.368;2022-09-09T14:24:52;100036.38;;;12.07;46.92
65384;BME280;51986;52.788;41.368;2022-09-09T14:27:19;100061.94;;;12.39;46.34
65384;BME280;51986;52.788;41.368;2022-09-09T14:29:46;100054.44;;;12.30;47.22
65384;BME280;51986;52.788;41.368;2022-09-09T14:32:13;100077.81;;;12.43;46.71
65384;BME280;51986;52.788;41.368;2022-09-09T14:34:56;100045.81;;;12.16;47.12
65384;BME280;51986;52.788;41.368;2022-09-09T14:37:27;100071.41;;;12.40;46.96
65384;BME280;51986;52.788;41.368;2022-09-09T14:39:54;100074.47;;;12.28;46.28
65384;BME280;51986;52.788;41.368;2022-09-09T14:42:21;100061.56;;;12.44;46.14
65384;BME280;51986;52.788;41.368;2022-09-09T14:44:48;100069.88;;;12.39;46.56
65384;BME280;51986;52.788;41.368;2022-09-09T14:47:15;100065.44;;;12.15;46.36
65384;BME280;51986;52.788;41.368;2022-09-09T14:49:42;100068.53;;;11.88;46.45
65384;BME280;51986;52.788;41.368;2022-09-09T14:52:13;100073.47;;;11.65;46.73
65384;BME280;51986;52.788;41.368;2022-09-09T14:54:39;100067.03;;;11.69;46.13
65384;BME280;51986;52.788;41.368;2022-09-09T14:57:06;100046.66;;;11.55;45.64
65384;BME280;51986;52.788;41.368;2022-09-09T14:59:33;100059.09;;;11.62;45.50
65384;BME280;51986;52.788;41.368;2022-09-09T15:02:00;100053.81;;;11.62;44.72
65384;BME280;51986;52.788;41.368;2022-09-09T15:04:27;100056.09;;;11.31;44.04
65384;BME280;51986;52.788;41.368;2022-09-09T15:06:54;100044.41;;;11.29;43.06
65384;BME280;51986;52.788;41.368;2022-09-09T15:09:21;100059.88;;;11.13;43.18
65384;BME280;51986;52.788;41.368;2022-09-09T15:14:59;100088.53;;;11.11;44.06
65384;BME280;51986;52.788;41.368;2022-09-09T15:17:36;100080.22;;;11.19;44.07
65384;BME280;51986;52.788;41.368;2022-09-09T15:20:04;100094.56;;;11.15;43.95
65384;BME280;51986;52.788;41.368;2022-09-09T15:25:53;100082.88;;;11.08;44.99
65384;BME280;51986;52.788;41.368;2022-09-09T15:28:21;100076.84;;;11.15;44.36
65384;BME280;51986;52.788;41.368;2022-09-09T15:30:49;100091.16;;;11.03;45.01
65384;BME280;51986;52.788;41.368;2022-09-09T15:33:21;100094.97;;;11.17;45.38